createdAt,value
2022-12-23T00:04:07.357Z,98792.37
2022-12-23T00:09:10.262Z,98796.64
2022-12-23T00:14:31.330Z,98808.85
2022-12-23T00:19:34.154Z,98810.85
2022-12-23T00:24:36.907Z,98815.65
2022-12-23T00:29:39.748Z,98818.48
2022-12-23T00:34:42.549Z,98823.16
2022-12-23T00:40:06.967Z,98828.83
2022-12-23T00:45:16.284Z,98826.60
2022-12-23T00:50:19.152Z,98834.01
2022-12-23T00:55:22.058Z,98835.52
2022-12-23T01:00:45.337Z,98840.95
2022-12-23T01:05:48.192Z,98845.27
2022-12-23T01:10:50.992Z,98843.60
2022-12-23T01:15:59.219Z,98835.30
2022-12-23T01:21:06.888Z,98836.91
2022-12-23T01:26:10.789Z,98837.82
2022-12-23T01:31:13.772Z,98841.77
2022-12-23T01:36:16.692Z,98841.02
2022-12-23T01:41:41.369Z,98848.54
2022-12-23T01:46:44.193Z,98855.73
2022-12-23T01:51:47.392Z,98858.42
2022-12-23T01:56:50.172Z,98863.86
2022-12-23T02:02:11.753Z,98867.23
2022-12-23T02:07:33.559Z,98870.73
2022-12-23T02:13:02.492Z,98866.55
2022-12-23T02:18:14.386Z,98869.02
2022-12-23T02:23:54.782Z,98870.38
2022-12-23T02:29:28.307Z,98867.39
2022-12-23T02:34:58.946Z,98868.25
2022-12-23T02:40:35.385Z,98875.66
2022-12-23T02:45:46.348Z,98872.95
2022-12-23T02:50:53.503Z,98872.04
2022-12-23T02:55:59.289Z,98870.61
2022-12-23T03:01:03.455Z,98878.41
2022-12-23T03:06:17.801Z,98887.13
2022-12-23T03:11:20.772Z,98883.89
2022-12-23T03:17:04.624Z,98877.82
2022-12-23T03:22:25.267Z,98873.78
2022-12-23T03:27:36.204Z,98874.14
2022-12-23T03:33:08.012Z,98875.94
2022-12-23T03:38:14.092Z,98878.67
2022-12-23T03:43:30.707Z,98875.48
2022-12-23T03:48:38.836Z,98887.02
2022-12-23T03:53:53.009Z,98886.31
2022-12-23T03:59:09.226Z,98880.84
2022-12-23T04:04:46.035Z,98883.89
2022-12-23T04:09:51.272Z,98885.56
2022-12-23T04:14:54.049Z,98888.31
2022-12-23T04:19:57.013Z,98884.56
2022-12-23T04:24:59.795Z,98872.49
2022-12-23T04:30:02.752Z,98869.79
2022-12-23T04:35:06.120Z,98870.41
2022-12-23T04:40:09.232Z,98879.17
2022-12-23T04:45:12.080Z,98884.09
2022-12-23T04:50:17.762Z,98886.96
2022-12-23T04:55:20.592Z,98887.55
2022-12-23T05:00:23.499Z,98889.81
2022-12-23T05:05:26.312Z,98890.16
2022-12-23T05:10:29.505Z,98886.63
2022-12-23T05:15:33.165Z,98880.38
2022-12-23T05:20:36.034Z,98879.65
2022-12-23T05:25:39.877Z,98882.60
2022-12-23T05:30:42.706Z,98890.22
2022-12-23T05:35:45.556Z,98897.29
2022-12-23T05:40:49.037Z,98902.24
2022-12-23T05:45:52.347Z,98902.58
2022-12-23T05:50:55.178Z,98896.79
2022-12-23T05:55:57.992Z,98897.86
2022-12-23T06:01:03.072Z,98894.87
2022-12-23T06:06:06.302Z,98903.63
2022-12-23T06:11:09.164Z,98913.14
2022-12-23T06:16:12.228Z,98911.77
2022-12-23T06:21:15.073Z,98916.41
2022-12-23T06:26:18.014Z,98921.17
2022-12-23T06:31:20.835Z,98925.23
2022-12-23T06:36:23.742Z,98926.57
2022-12-23T06:41:26.565Z,98934.41
2022-12-23T06:46:29.509Z,98933.68
2022-12-23T06:51:32.364Z,98933.79
2022-12-23T06:56:35.317Z,98940.25
2022-12-23T07:01:38.235Z,98947.83
2022-12-23T07:06:41.217Z,98944.56
2022-12-23T07:11:44.054Z,98939.95
2022-12-23T07:16:46.957Z,98943.73
2022-12-23T07:21:50.261Z,98947.56
2022-12-23T07:26:53.070Z,98946.38
2022-12-23T07:31:56.715Z,98945.73
2022-12-23T07:36:59.544Z,98948.75
2022-12-23T07:42:42.914Z,98944.85
2022-12-23T07:47:25.390Z,98949.75
2022-12-23T07:52:29.030Z,98951.84
2022-12-23T07:57:37.813Z,98957.35
2022-12-23T08:02:41.937Z,98965.64
2022-12-23T08:07:50.016Z,98962.84
2022-12-23T08:12:53.032Z,98955.29
2022-12-23T08:17:56.531Z,98942.38
2022-12-23T08:22:59.387Z,98945.87
2022-12-23T08:28:02.219Z,98948.99
2022-12-23T08:33:05.306Z,98958.05
2022-12-23T08:38:08.134Z,98969.84
2022-12-23T08:43:11.022Z,98963.88
2022-12-23T08:48:14.364Z,98965.56
2022-12-23T08:53:17.206Z,98967.77
2022-12-23T08:58:20.254Z,98973.38
2022-12-23T09:03:23.261Z,98963.69
2022-12-23T09:08:26.247Z,98964.75
2022-12-23T09:13:35.264Z,98959.68
2022-12-23T09:18:39.230Z,98967.40
2022-12-23T09:23:42.085Z,98962.20
2022-12-23T09:28:44.933Z,98957.29
2022-12-23T09:33:49.781Z,98956.38
2022-12-23T09:38:57.392Z,98953.05
2022-12-23T09:44:12.880Z,98950.14
2022-12-23T09:49:18.809Z,98950.11
2022-12-23T09:54:24.593Z,98951.23
2022-12-23T10:00:15.699Z,98955.02
2022-12-23T10:05:24.335Z,98951.67
2022-12-23T10:10:40.368Z,98949.05
2022-12-23T10:15:47.862Z,98947.09
2022-12-23T10:21:00.025Z,98934.17
2022-12-23T10:26:11.552Z,98928.25
2022-12-23T10:31:40.996Z,98924.89
2022-12-23T10:36:49.293Z,98918.60
2022-12-23T10:42:16.981Z,98913.60
2022-12-23T10:48:13.610Z,98908.10
2022-12-23T10:53:43.329Z,98912.15
2022-12-23T10:58:47.153Z,98900.08
2022-12-23T11:03:56.168Z,98899.20
2022-12-23T11:09:02.568Z,98890.02
2022-12-23T11:14:05.387Z,98889.92
2022-12-23T11:19:16.082Z,98878.66
2022-12-23T11:24:22.231Z,98874.73
2022-12-23T11:29:38.396Z,98873.36
2022-12-23T11:34:45.839Z,98866.53
2022-12-23T11:39:49.444Z,98863.85
2022-12-23T11:44:55.077Z,98861.63
2022-12-23T11:50:22.037Z,98857.80
2022-12-23T11:55:29.874Z,98858.54
2022-12-23T12:00:41.507Z,98866.81
2022-12-23T12:05:51.560Z,98873.14
2022-12-23T12:11:02.701Z,98878.95
2022-12-23T12:16:42.206Z,98883.29
2022-12-23T12:21:49.469Z,98888.43
2022-12-23T12:26:57.045Z,98883.66
2022-12-23T12:32:01.627Z,98881.88
2022-12-23T12:37:13.458Z,98881.65
2022-12-23T12:42:24.855Z,98886.20
2022-12-23T12:47:53.804Z,98890.14
2022-12-23T12:53:09.677Z,98894.27
2022-12-23T12:58:19.899Z,98886.93
2022-12-23T13:03:34.522Z,98891.80
2022-12-23T13:08:52.893Z,98885.05
2022-12-23T13:14:14.325Z,98887.44
2022-12-23T13:19:36.967Z,98896.75
2022-12-23T13:25:07.848Z,98894.46
2022-12-23T13:30:20.249Z,98890.71
2022-12-23T13:35:33.703Z,98896.95
2022-12-23T13:40:48.252Z,98889.16
2022-12-23T13:45:54.522Z,98882.58
2022-12-23T13:51:36.330Z,98887.33
2022-12-23T13:56:47.749Z,98888.76
2022-12-23T14:01:52.712Z,98888.41
2022-12-23T14:07:02.487Z,98885.48
2022-12-23T14:12:17.260Z,98889.08
2022-12-23T14:17:34.227Z,98887.17
2022-12-23T14:22:55.035Z,98888.44
2022-12-23T14:28:39.506Z,98882.20
2022-12-23T14:33:48.410Z,98890.65
2022-12-23T14:39:12.800Z,98893.40
2022-12-23T14:44:38.284Z,98888.64
2022-12-23T14:49:44.301Z,98886.96
2022-12-23T14:55:13.247Z,98889.56
2022-12-23T15:00:11.495Z,98892.27
2022-12-23T15:05:14.405Z,98902.98
2022-12-23T15:10:26.187Z,98905.17
2022-12-23T15:15:30.777Z,98909.71
2022-12-23T15:20:35.327Z,98913.65
2022-12-23T15:25:46.053Z,98913.63
2022-12-23T15:30:52.948Z,98914.23
2022-12-23T15:35:57.253Z,98910.54
2022-12-23T15:41:19.609Z,98913.73
2022-12-23T15:46:29.760Z,98923.59
2022-12-23T15:52:05.625Z,98931.92
2022-12-23T15:57:01.522Z,98940.80
2022-12-23T16:02:32.628Z,98935.46
2022-12-23T16:07:41.425Z,98932.81
2022-12-23T16:12:44.925Z,98933.40
2022-12-23T16:17:47.829Z,98941.39
2022-12-23T16:22:54.132Z,98946.44
2022-12-23T16:28:02.174Z,98945.98
2022-12-23T16:33:43.801Z,98947.55
2022-12-23T16:38:48.050Z,98939.69
2022-12-23T16:43:52.759Z,98937.45
2022-12-23T16:48:59.735Z,98938.20
2022-12-23T16:54:02.589Z,98945.08
2022-12-23T16:59:05.544Z,98951.44
2022-12-23T17:04:09.217Z,98959.77
2022-12-23T17:09:12.569Z,98963.91
2022-12-23T17:14:21.892Z,98962.45
2022-12-23T17:19:29.034Z,98960.41
2022-12-23T17:24:32.640Z,98960.85
2022-12-23T17:29:35.604Z,98969.34
2022-12-23T17:34:38.775Z,98971.58
2022-12-23T17:39:43.283Z,98968.75
2022-12-23T17:44:47.462Z,98972.66
2022-12-23T17:49:50.538Z,98975.19
2022-12-23T17:54:53.565Z,98962.71
2022-12-23T17:59:56.963Z,98954.20
2022-12-23T18:04:59.796Z,98951.80
2022-12-23T18:10:03.081Z,98952.27
2022-12-23T18:15:07.630Z,98952.05
2022-12-23T18:20:19.118Z,98968.48
2022-12-23T18:25:28.401Z,98975.27
2022-12-23T18:30:31.351Z,98973.27
2022-12-23T18:35:45.421Z,98977.04
2022-12-23T18:40:49.845Z,98982.23
2022-12-23T18:45:53.967Z,98979.02
2022-12-23T18:50:57.111Z,98981.94
2022-12-23T18:56:00.068Z,98991.55
2022-12-23T19:01:03.042Z,98995.48
2022-12-23T19:06:08.201Z,98993.89
2022-12-23T19:11:20.729Z,98994.27
2022-12-23T19:16:23.791Z,99001.00
2022-12-23T19:21:26.678Z,99014.30
2022-12-23T19:26:29.486Z,99023.55
2022-12-23T19:31:34.158Z,99022.83
2022-12-23T19:36:37.357Z,99025.64
2022-12-23T19:41:40.217Z,99034.06
2022-12-23T19:46:43.376Z,99040.58
2022-12-23T19:51:46.457Z,99035.15
2022-12-23T19:56:51.189Z,99036.59
2022-12-23T20:01:54.187Z,99034.36
2022-12-23T20:06:57.014Z,99035.92
2022-12-23T20:11:59.817Z,99040.55
2022-12-23T20:17:03.195Z,99034.50
2022-12-23T20:22:06.046Z,99028.90
2022-12-23T20:27:11.691Z,99030.45
2022-12-23T20:32:16.053Z,99036.50
2022-12-23T20:37:18.888Z,99040.27
2022-12-23T20:42:21.687Z,99045.02
2022-12-23T20:47:24.463Z,99053.73
2022-12-23T20:52:27.309Z,99054.98
2022-12-23T20:57:31.711Z,99058.60
2022-12-23T21:02:34.549Z,99056.26
2022-12-23T21:07:37.421Z,99065.52
2022-12-23T21:12:40.187Z,99063.46
2022-12-23T21:17:42.990Z,99067.08
2022-12-23T21:22:46.304Z,99082.83
2022-12-23T21:27:50.788Z,99085.09
2022-12-23T21:32:53.642Z,99087.05
2022-12-23T21:37:56.472Z,99091.48
2022-12-23T21:43:02.769Z,99098.25
2022-12-23T21:48:08.380Z,99095.41
2022-12-23T21:53:11.179Z,99101.48
2022-12-23T21:58:14.041Z,99108.73
2022-12-23T22:03:16.851Z,99106.71
2022-12-23T22:08:19.650Z,99111.47
2022-12-23T22:13:22.402Z,99109.70
2022-12-23T22:18:25.174Z,99114.83
2022-12-23T22:23:28.327Z,99119.30
2022-12-23T22:28:33.451Z,99123.73
2022-12-23T22:33:36.205Z,99124.67
2022-12-23T22:38:39.237Z,99136.88
2022-12-23T22:43:42.069Z,99140.34
2022-12-23T22:48:44.963Z,99139.08
2022-12-23T22:53:48.431Z,99143.46
2022-12-23T22:58:52.668Z,99137.79
2022-12-23T23:03:57.767Z,99128.73
2022-12-23T23:09:01.116Z,99136.48
2022-12-23T23:14:04.121Z,99141.21
2022-12-23T23:19:09.233Z,99142.95
2022-12-23T23:24:12.507Z,99148.48
2022-12-23T23:29:15.826Z,99147.75
2022-12-23T23:34:18.676Z,99158.52
2022-12-23T23:39:21.511Z,99157.05
2022-12-23T23:44:24.308Z,99159.34
2022-12-23T23:49:27.135Z,99158.71
2022-12-23T23:54:29.941Z,99154.23
2022-12-23T23:59:32.720Z,99161.44
